createdAt,value
2023-04-08T00:00:52.662Z,18.15
2023-04-08T00:03:21.695Z,16.50
2023-04-08T00:05:49.822Z,17.50
2023-04-08T00:08:18.985Z,16.13
2023-04-08T00:10:46.986Z,16.30
2023-04-08T00:13:15.028Z,16.05
2023-04-08T00:15:43.046Z,16.67
2023-04-08T00:18:10.815Z,16.20
2023-04-08T00:20:38.758Z,16.13
2023-04-08T00:23:06.785Z,14.63
2023-04-08T00:25:35.965Z,16.63
2023-04-08T00:28:04.168Z,16.50
2023-04-08T00:30:32.147Z,17.10
2023-04-08T00:33:00.050Z,18.08
2023-04-08T00:35:28.341Z,17.42
2023-04-08T00:37:56.401Z,17.10
2023-04-08T00:40:24.360Z,17.63
2023-04-08T00:42:53.487Z,17.88
2023-04-08T00:45:21.890Z,16.45
2023-04-08T00:47:52.798Z,15.75
2023-04-08T00:50:21.403Z,16.05
2023-04-08T00:52:49.588Z,15.25
2023-04-08T00:55:17.548Z,14.75
2023-04-08T00:57:45.956Z,14.90
2023-04-08T01:00:16.864Z,14.13
2023-04-08T01:02:49.651Z,14.60
2023-04-08T01:05:26.023Z,12.90
2023-04-08T01:07:54.073Z,13.55
2023-04-08T01:10:24.154Z,12.63
2023-04-08T01:12:55.713Z,12.13
2023-04-08T01:15:26.247Z,11.20
2023-04-08T01:17:55.581Z,11.90
2023-04-08T01:20:24.182Z,12.38
2023-04-08T01:23:03.792Z,11.68
2023-04-08T01:25:33.423Z,11.30
2023-04-08T01:28:05.799Z,10.45
2023-04-08T01:30:34.814Z,10.57
2023-04-08T01:33:03.828Z,10.30
2023-04-08T01:35:32.366Z,10.18
2023-04-08T01:38:01.338Z,10.05
2023-04-08T01:40:29.358Z,9.00
2023-04-08T01:42:58.245Z,8.70
2023-04-08T01:45:27.833Z,9.55
2023-04-08T01:47:57.729Z,8.95
2023-04-08T01:50:26.501Z,8.25
2023-04-08T01:52:54.472Z,8.07
2023-04-08T01:55:22.720Z,7.68
2023-04-08T01:57:52.807Z,8.00
2023-04-08T02:00:22.473Z,8.10
2023-04-08T02:02:54.392Z,7.82
2023-04-08T02:05:22.700Z,8.63
2023-04-08T02:07:50.998Z,8.85
2023-04-08T02:10:19.011Z,9.38
2023-04-08T02:12:47.548Z,10.10
2023-04-08T02:15:15.764Z,8.85
2023-04-08T02:17:46.161Z,8.60
2023-04-08T02:20:19.763Z,8.32
2023-04-08T02:22:51.225Z,8.85
2023-04-08T02:25:23.018Z,9.65
2023-04-08T02:27:51.391Z,8.18
2023-04-08T02:30:19.926Z,7.50
2023-04-08T02:32:49.290Z,7.63
2023-04-08T02:35:20.350Z,8.27
2023-04-08T02:37:48.999Z,7.78
2023-04-08T02:40:27.514Z,8.13
2023-04-08T02:42:56.543Z,8.45
2023-04-08T02:45:26.607Z,8.77
2023-04-08T02:47:54.548Z,9.02
2023-04-08T02:50:23.906Z,9.30
2023-04-08T02:52:52.051Z,8.82
2023-04-08T02:55:19.866Z,8.98
2023-04-08T02:57:48.677Z,8.55
2023-04-08T03:00:17.228Z,9.35
2023-04-08T03:02:45.498Z,9.40
2023-04-08T03:05:13.326Z,9.18
2023-04-08T03:07:42.624Z,9.40
2023-04-08T03:10:10.970Z,9.52
2023-04-08T03:12:39.127Z,9.35
2023-04-08T03:15:07.761Z,10.93
2023-04-08T03:17:35.778Z,10.30
2023-04-08T03:20:04.870Z,9.95
2023-04-08T03:22:32.689Z,10.85
2023-04-08T03:25:02.122Z,10.50
2023-04-08T03:27:29.936Z,10.75
2023-04-08T03:29:58.128Z,11.02
2023-04-08T03:32:26.188Z,10.73
2023-04-08T03:34:54.591Z,11.98
2023-04-08T03:37:22.667Z,12.50
2023-04-08T03:39:50.663Z,11.73
2023-04-08T03:42:19.765Z,11.70
2023-04-08T03:44:47.698Z,11.02
2023-04-08T03:47:15.566Z,12.23
2023-04-08T03:49:43.546Z,11.13
2023-04-08T03:52:11.508Z,11.27
2023-04-08T03:54:39.532Z,10.10
2023-04-08T03:57:07.306Z,11.32
2023-04-08T03:59:36.795Z,10.70
2023-04-08T04:02:04.662Z,9.90
2023-04-08T04:04:32.683Z,10.50
2023-04-08T04:07:00.854Z,9.93
2023-04-08T04:09:28.684Z,10.07
2023-04-08T04:11:56.480Z,9.75
2023-04-08T04:14:24.266Z,9.15
2023-04-08T04:16:53.447Z,10.10
2023-04-08T04:19:21.472Z,9.20
2023-04-08T04:21:49.223Z,9.15
2023-04-08T04:24:17.216Z,9.38
2023-04-08T04:26:44.915Z,8.95
2023-04-08T04:29:12.814Z,9.25
2023-04-08T04:31:40.839Z,9.13
2023-04-08T04:34:10.150Z,10.30
2023-04-08T04:36:38.028Z,10.30
2023-04-08T04:39:05.805Z,9.73
2023-04-08T04:41:35.312Z,10.00
2023-04-08T04:44:03.204Z,9.50
2023-04-08T04:46:31.148Z,10.07
2023-04-08T04:48:59.080Z,9.02
2023-04-08T04:51:28.695Z,9.52
2023-04-08T04:53:56.512Z,9.85
2023-04-08T04:56:24.235Z,9.52
2023-04-08T04:58:52.299Z,10.50
2023-04-08T05:01:20.519Z,9.90
2023-04-08T05:03:48.393Z,10.20
2023-04-08T05:06:16.247Z,9.70
2023-04-08T05:08:45.554Z,9.30
2023-04-08T05:11:13.346Z,8.38
2023-04-08T05:13:41.239Z,8.27
2023-04-08T05:16:09.547Z,8.10
2023-04-08T05:18:37.826Z,9.13
2023-04-08T05:21:05.753Z,9.13
2023-04-08T05:23:33.638Z,8.95
2023-04-08T05:26:03.140Z,9.63
2023-04-08T05:28:31.793Z,9.10
2023-04-08T05:30:59.854Z,9.48
2023-04-08T05:33:28.045Z,9.38
2023-04-08T05:35:55.977Z,9.40
2023-04-08T05:38:26.377Z,9.60
2023-04-08T05:40:54.290Z,8.68
2023-04-08T05:43:23.534Z,9.15
2023-04-08T05:45:51.416Z,9.23
2023-04-08T05:48:19.331Z,9.02
2023-04-08T05:50:48.571Z,8.90
2023-04-08T05:53:16.459Z,8.93
2023-04-08T05:55:44.217Z,8.40
2023-04-08T05:58:12.125Z,8.07
2023-04-08T06:00:41.438Z,8.65
2023-04-08T06:03:09.432Z,8.80
2023-04-08T06:05:37.423Z,9.23
2023-04-08T06:08:05.693Z,8.63
2023-04-08T06:10:33.613Z,8.30
2023-04-08T06:13:01.352Z,8.32
2023-04-08T06:15:29.409Z,9.02
2023-04-08T06:17:58.526Z,9.00
2023-04-08T06:20:26.466Z,9.43
2023-04-08T06:22:54.400Z,8.60
2023-04-08T06:25:22.186Z,9.50
2023-04-08T06:27:50.138Z,9.00
2023-04-08T06:30:18.588Z,9.40
2023-04-08T06:32:47.373Z,9.95
2023-04-08T06:35:16.947Z,8.85
2023-04-08T06:37:44.862Z,9.43
2023-04-08T06:40:12.952Z,9.18
2023-04-08T06:42:43.144Z,9.75
2023-04-08T06:45:29.275Z,10.25
2023-04-08T06:47:57.421Z,10.68
2023-04-08T06:50:26.775Z,9.75
2023-04-08T06:52:55.225Z,10.07
2023-04-08T06:55:22.991Z,9.95
2023-04-08T06:57:51.041Z,9.57
2023-04-08T07:00:19.387Z,9.70
2023-04-08T07:02:47.546Z,9.95
2023-04-08T07:05:15.667Z,9.38
2023-04-08T07:07:45.388Z,9.02
2023-04-08T07:10:14.267Z,10.55
2023-04-08T07:12:42.050Z,10.77
2023-04-08T07:15:10.975Z,9.82
2023-04-08T07:17:39.754Z,9.73
2023-04-08T07:20:08.785Z,10.00
2023-04-08T07:22:36.803Z,9.85
2023-04-08T07:25:06.661Z,9.23
2023-04-08T07:27:34.932Z,10.55
2023-04-08T07:30:03.111Z,9.35
2023-04-08T07:32:31.189Z,10.30
2023-04-08T07:35:00.064Z,9.98
2023-04-08T07:37:27.952Z,10.63
2023-04-08T07:39:56.206Z,10.48
2023-04-08T07:42:26.004Z,10.05
2023-04-08T07:44:54.211Z,10.05
2023-04-08T07:47:22.101Z,9.93
2023-04-08T07:49:51.178Z,10.27
2023-04-08T07:52:19.030Z,10.48
2023-04-08T07:54:47.262Z,9.82
2023-04-08T07:57:15.299Z,10.75
2023-04-08T07:59:44.685Z,12.27
2023-04-08T08:02:12.855Z,11.95
2023-04-08T08:04:41.177Z,11.85
2023-04-08T08:07:09.570Z,11.35
2023-04-08T08:09:37.558Z,11.50
2023-04-08T08:12:05.813Z,11.38
2023-04-08T08:14:33.837Z,11.15
2023-04-08T08:17:04.727Z,12.05
2023-04-08T08:19:32.515Z,10.98
2023-04-08T08:22:00.552Z,10.93
2023-04-08T08:24:28.486Z,10.93
2023-04-08T08:26:56.819Z,10.60
2023-04-08T08:29:24.702Z,10.95
2023-04-08T08:31:52.516Z,11.70
2023-04-08T08:34:21.692Z,11.00
2023-04-08T08:36:49.487Z,12.13
2023-04-08T08:39:17.364Z,10.30
2023-04-08T08:41:46.003Z,10.45
2023-04-08T08:44:14.306Z,11.75
2023-04-08T08:46:45.380Z,11.30
2023-04-08T08:49:13.786Z,11.40
2023-04-08T08:51:43.324Z,11.88
2023-04-08T08:54:11.324Z,11.15
2023-04-08T08:56:39.082Z,11.18
2023-04-08T08:59:06.969Z,13.15
2023-04-08T09:01:37.423Z,11.85
2023-04-08T09:04:11.113Z,12.50
2023-04-08T09:06:39.370Z,13.13
2023-04-08T09:09:10.504Z,12.00
2023-04-08T09:11:39.862Z,12.23
2023-04-08T09:14:16.727Z,11.95
2023-04-08T09:16:45.621Z,12.77
2023-04-08T09:19:13.769Z,12.48
2023-04-08T09:21:42.145Z,13.23
2023-04-08T09:24:12.526Z,12.30
2023-04-08T09:26:41.958Z,11.70
2023-04-08T09:29:24.264Z,11.27
2023-04-08T09:31:55.451Z,10.85
2023-04-08T09:34:23.762Z,11.43
2023-04-08T09:36:52.295Z,11.05
2023-04-08T09:39:21.899Z,11.55
2023-04-08T09:41:51.042Z,12.15
2023-04-08T09:44:21.353Z,11.77
2023-04-08T09:46:58.067Z,11.27
2023-04-08T09:49:28.353Z,11.40
2023-04-08T09:52:01.036Z,10.98
2023-04-08T09:54:49.099Z,11.50
2023-04-08T09:57:19.018Z,11.52
2023-04-08T09:59:51.300Z,10.68
2023-04-08T10:02:24.497Z,11.40
2023-04-08T10:04:54.072Z,11.43
2023-04-08T10:07:22.148Z,11.80
2023-04-08T10:09:51.710Z,10.80
2023-04-08T10:12:19.686Z,10.57
2023-04-08T10:15:20.759Z,10.57
2023-04-08T10:17:48.764Z,9.93
2023-04-08T10:20:49.449Z,9.52
2023-04-08T10:23:18.677Z,9.82
2023-04-08T10:25:49.089Z,9.70
2023-04-08T10:28:25.973Z,9.07
2023-04-08T10:30:54.699Z,9.85
2023-04-08T10:33:24.380Z,9.48
2023-04-08T10:35:55.235Z,9.40
2023-04-08T10:38:23.295Z,9.18
2023-04-08T10:40:52.531Z,9.57
2023-04-08T10:43:21.212Z,9.05
2023-04-08T10:45:51.297Z,9.80
2023-04-08T10:48:22.639Z,10.07
2023-04-08T10:50:55.035Z,9.30
2023-04-08T10:53:28.288Z,9.50
2023-04-08T10:56:05.009Z,8.40
2023-04-08T10:58:33.093Z,9.15
2023-04-08T11:01:05.151Z,8.55
2023-04-08T11:03:33.960Z,9.52
2023-04-08T11:06:02.468Z,8.35
2023-04-08T11:08:31.020Z,8.00
2023-04-08T11:11:01.663Z,8.23
2023-04-08T11:13:29.932Z,8.40
2023-04-08T11:15:58.120Z,8.50
2023-04-08T11:18:26.221Z,8.48
2023-04-08T11:20:55.004Z,8.27
2023-04-08T11:23:23.235Z,8.93
2023-04-08T11:25:51.909Z,7.93
2023-04-08T11:28:21.360Z,8.38
2023-04-08T11:30:49.839Z,7.80
2023-04-08T11:33:17.793Z,8.52
2023-04-08T11:35:46.207Z,8.40
2023-04-08T11:38:14.220Z,8.05
2023-04-08T11:40:42.065Z,8.70
2023-04-08T11:43:15.402Z,8.55
2023-04-08T11:45:45.178Z,8.02
2023-04-08T11:48:14.135Z,7.72
2023-04-08T11:50:42.676Z,7.95
2023-04-08T11:53:19.927Z,8.25
2023-04-08T11:55:48.558Z,7.75
2023-04-08T11:58:16.890Z,7.65
2023-04-08T12:00:46.712Z,8.68
2023-04-08T12:03:14.834Z,8.43
2023-04-08T12:05:42.971Z,7.75
2023-04-08T12:08:11.007Z,7.53
2023-04-08T12:10:39.222Z,7.35
2023-04-08T12:13:07.210Z,7.32
2023-04-08T12:15:35.144Z,7.40
2023-04-08T12:18:04.618Z,6.93
2023-04-08T12:20:32.520Z,8.27
2023-04-08T12:23:00.490Z,7.10
2023-04-08T12:25:29.282Z,7.47
2023-04-08T12:27:57.361Z,7.53
2023-04-08T12:30:25.095Z,7.20
2023-04-08T12:32:55.231Z,8.02
2023-04-08T12:35:24.598Z,7.20
2023-04-08T12:37:52.686Z,7.50
2023-04-08T12:40:20.559Z,7.60
2023-04-08T12:42:48.549Z,7.00
2023-04-08T12:45:16.823Z,6.72
2023-04-08T12:47:44.920Z,7.15
2023-04-08T12:50:12.757Z,7.18
2023-04-08T12:52:42.421Z,7.05
2023-04-08T12:55:11.553Z,7.47
2023-04-08T12:57:39.428Z,7.55
2023-04-08T13:00:08.622Z,6.78
2023-04-08T13:02:36.897Z,7.07
2023-04-08T13:05:05.460Z,7.20
2023-04-08T13:07:33.230Z,7.03
2023-04-08T13:10:03.670Z,6.65
2023-04-08T13:12:32.169Z,7.15
2023-04-08T13:15:00.394Z,6.85
2023-04-08T13:17:28.253Z,7.60
2023-04-08T13:19:56.267Z,6.65
2023-04-08T13:22:24.173Z,7.78
2023-04-08T13:24:52.288Z,6.85
2023-04-08T13:27:21.872Z,7.10
2023-04-08T13:29:49.604Z,7.63
2023-04-08T13:32:17.629Z,7.57
2023-04-08T13:34:45.678Z,6.40
2023-04-08T13:37:13.524Z,6.85
2023-04-08T13:39:41.318Z,6.43
2023-04-08T13:42:09.476Z,6.78
2023-04-08T13:44:38.978Z,6.53
2023-04-08T13:47:06.792Z,6.07
2023-04-08T13:49:34.649Z,6.13
2023-04-08T13:52:02.480Z,6.05
2023-04-08T13:54:31.309Z,6.32
2023-04-08T13:56:59.146Z,6.45
2023-04-08T13:59:26.905Z,6.20
2023-04-08T14:01:56.214Z,6.30
2023-04-08T14:04:24.400Z,6.97
2023-04-08T14:06:53.240Z,5.97
2023-04-08T14:09:21.736Z,6.13
2023-04-08T14:11:49.730Z,5.57
2023-04-08T14:14:17.664Z,6.65
2023-04-08T14:16:45.654Z,6.78
2023-04-08T14:19:15.334Z,6.55
2023-04-08T14:21:43.438Z,7.05
2023-04-08T14:24:11.524Z,6.40
2023-04-08T14:26:39.804Z,6.40
2023-04-08T14:29:08.777Z,6.18
2023-04-08T14:31:36.959Z,6.60
2023-04-08T14:34:05.051Z,6.65
2023-04-08T14:36:34.480Z,7.95
2023-04-08T14:39:03.009Z,7.68
2023-04-08T14:41:30.853Z,7.97
2023-04-08T14:43:59.093Z,7.65
2023-04-08T14:46:28.907Z,7.35
2023-04-08T14:48:57.160Z,8.00
2023-04-08T14:51:25.020Z,8.45
2023-04-08T14:53:54.223Z,8.30
2023-04-08T14:56:22.378Z,8.68
2023-04-08T14:58:50.470Z,7.85
2023-04-08T15:01:18.386Z,8.18
2023-04-08T15:03:47.596Z,7.30
2023-04-08T15:06:17.754Z,6.82
2023-04-08T15:08:45.820Z,7.63
2023-04-08T15:11:15.053Z,7.40
2023-04-08T15:13:43.168Z,7.60
2023-04-08T15:16:11.220Z,7.35
2023-04-08T15:18:39.681Z,7.72
2023-04-08T15:21:07.488Z,7.47
2023-04-08T15:23:35.641Z,7.10
2023-04-08T15:26:03.614Z,6.97
2023-04-08T15:28:32.940Z,7.43
2023-04-08T15:31:01.872Z,7.30
2023-04-08T15:33:29.813Z,7.45
2023-04-08T15:35:59.700Z,7.30
2023-04-08T15:38:28.349Z,8.30
2023-04-08T15:40:56.151Z,7.90
2023-04-08T15:43:23.859Z,8.35
2023-04-08T15:45:53.205Z,9.25
2023-04-08T15:48:21.332Z,8.90
2023-04-08T15:50:49.314Z,9.70
2023-04-08T15:53:17.181Z,9.73
2023-04-08T15:55:45.267Z,9.82
2023-04-08T15:58:13.160Z,10.70
2023-04-08T16:00:41.247Z,10.63
2023-04-08T16:03:12.022Z,10.63
2023-04-08T16:05:41.670Z,11.88
2023-04-08T16:08:10.117Z,11.82
2023-04-08T16:10:37.958Z,12.63
2023-04-08T16:13:06.369Z,11.20
2023-04-08T16:15:35.131Z,11.43
2023-04-08T16:18:04.753Z,11.15
2023-04-08T16:20:34.096Z,11.70
2023-04-08T16:23:01.910Z,11.45
2023-04-08T16:25:30.106Z,11.25
2023-04-08T16:27:58.585Z,12.45
2023-04-08T16:30:26.453Z,12.07
2023-04-08T16:32:54.679Z,12.07
2023-04-08T16:35:22.621Z,13.20
2023-04-08T16:37:51.862Z,12.73
2023-04-08T16:40:19.644Z,13.57
2023-04-08T16:42:48.182Z,13.57
2023-04-08T16:45:16.396Z,12.43
2023-04-08T16:47:44.505Z,13.07
2023-04-08T16:50:12.609Z,12.45
2023-04-08T16:52:40.461Z,12.13
2023-04-08T16:55:12.392Z,14.05
2023-04-08T16:57:41.452Z,12.73
2023-04-08T17:00:10.196Z,12.60
2023-04-08T17:02:38.362Z,13.48
2023-04-08T17:05:06.937Z,13.48
2023-04-08T17:07:35.008Z,11.52
2023-04-08T17:10:03.248Z,12.93
2023-04-08T17:12:32.877Z,12.98
2023-04-08T17:15:00.950Z,12.65
2023-04-08T17:17:28.868Z,12.77
2023-04-08T17:19:56.924Z,12.27
2023-04-08T17:22:24.913Z,12.60
2023-04-08T17:24:52.717Z,12.65
2023-04-08T17:27:21.205Z,13.23
2023-04-08T17:29:56.371Z,13.60
2023-04-08T17:32:24.607Z,12.77
2023-04-08T17:34:52.759Z,12.82
2023-04-08T17:37:20.676Z,13.75
2023-04-08T17:39:48.749Z,13.10
2023-04-08T17:42:16.968Z,12.93
2023-04-08T17:44:44.852Z,13.07
2023-04-08T17:47:14.276Z,13.32
2023-04-08T17:49:42.332Z,13.45
2023-04-08T17:52:10.275Z,13.45
2023-04-08T17:54:38.233Z,13.13
2023-04-08T17:57:06.536Z,14.25
2023-04-08T17:59:34.417Z,13.43
2023-04-08T18:02:05.699Z,12.60
2023-04-08T18:04:35.141Z,13.30
2023-04-08T18:07:04.536Z,11.63
2023-04-08T18:09:32.529Z,12.25
2023-04-08T18:12:00.813Z,12.18
2023-04-08T18:14:30.323Z,12.57
2023-04-08T18:16:59.369Z,12.63
2023-04-08T18:19:29.180Z,12.82
2023-04-08T18:22:00.134Z,13.15
2023-04-08T18:24:29.048Z,12.95
2023-04-08T18:27:04.418Z,12.93
2023-04-08T18:29:34.989Z,11.85
2023-04-08T18:32:09.397Z,12.57
2023-04-08T18:34:39.513Z,12.18
2023-04-08T18:37:10.986Z,11.55
2023-04-08T18:39:41.591Z,12.35
2023-04-08T18:42:12.974Z,13.15
2023-04-08T18:44:43.376Z,11.63
2023-04-08T18:47:11.551Z,12.13
2023-04-08T18:49:39.479Z,11.95
2023-04-08T18:52:08.443Z,12.45
2023-04-08T18:54:37.734Z,12.48
2023-04-08T18:57:05.714Z,13.18
2023-04-08T18:59:33.636Z,12.07
2023-04-08T19:02:01.567Z,12.50
2023-04-08T19:04:29.893Z,12.52
2023-04-08T19:06:57.794Z,13.13
2023-04-08T19:09:26.644Z,13.68
2023-04-08T19:11:55.956Z,13.65
2023-04-08T19:14:25.505Z,13.70
2023-04-08T19:16:53.331Z,13.50
2023-04-08T19:19:21.063Z,12.55
2023-04-08T19:21:48.993Z,13.07
2023-04-08T19:24:16.951Z,13.05
2023-04-08T19:26:44.886Z,13.55
2023-04-08T19:29:14.106Z,13.90
2023-04-08T19:31:41.931Z,14.35
2023-04-08T19:34:10.099Z,13.93
2023-04-08T19:36:38.015Z,13.20
2023-04-08T19:39:05.946Z,14.13
2023-04-08T19:41:34.001Z,13.98
2023-04-08T19:44:01.947Z,13.65
2023-04-08T19:46:31.125Z,13.43
2023-04-08T19:48:59.190Z,13.45
2023-04-08T19:51:27.470Z,13.95
2023-04-08T19:53:55.328Z,14.43
2023-04-08T19:56:23.358Z,16.63
2023-04-08T19:58:51.942Z,16.25
2023-04-08T20:01:20.106Z,16.10
2023-04-08T20:03:52.245Z,16.27
2023-04-08T20:06:21.173Z,16.75
2023-04-08T20:08:50.302Z,16.45
2023-04-08T20:11:18.444Z,16.55
2023-04-08T20:13:47.096Z,17.73
2023-04-08T20:16:15.293Z,18.00
2023-04-08T20:18:43.107Z,18.58
2023-04-08T20:21:14.074Z,18.20
2023-04-08T20:23:44.604Z,18.50
2023-04-08T20:26:13.112Z,16.83
2023-04-08T20:28:42.010Z,18.48
2023-04-08T20:31:10.465Z,18.30
2023-04-08T20:33:43.732Z,19.38
2023-04-08T20:36:13.625Z,19.93
2023-04-08T20:38:42.593Z,19.20
2023-04-08T20:41:10.864Z,19.88
2023-04-08T20:43:39.526Z,17.90
2023-04-08T20:46:07.612Z,19.55
2023-04-08T20:48:36.145Z,21.00
2023-04-08T20:51:04.284Z,19.90
2023-04-08T20:53:34.586Z,22.13
2023-04-08T20:56:03.634Z,21.13
2023-04-08T20:58:32.048Z,22.20
2023-04-08T21:01:00.450Z,23.85
2023-04-08T21:03:28.804Z,26.00
2023-04-08T21:05:56.914Z,25.05
2023-04-08T21:08:24.881Z,25.85
2023-04-08T21:10:54.603Z,26.05
2023-04-08T21:13:22.650Z,26.55
2023-04-08T21:15:50.417Z,27.42
2023-04-08T21:18:18.479Z,28.15
2023-04-08T21:20:46.561Z,27.52
2023-04-08T21:23:16.339Z,25.92
2023-04-08T21:25:44.146Z,27.13
2023-04-08T21:28:13.462Z,27.60
2023-04-08T21:30:42.108Z,28.10
2023-04-08T21:33:10.192Z,27.88
2023-04-08T21:35:38.107Z,29.10
2023-04-08T21:38:06.075Z,27.40
2023-04-08T21:40:33.978Z,27.80
2023-04-08T21:43:01.735Z,27.55
2023-04-08T21:45:31.130Z,27.40
2023-04-08T21:47:58.949Z,26.45
2023-04-08T21:50:26.753Z,26.40
2023-04-08T21:52:54.789Z,24.73
2023-04-08T21:55:22.626Z,26.90
2023-04-08T21:57:50.658Z,26.60
2023-04-08T22:00:18.534Z,27.52
2023-04-08T22:02:48.148Z,26.75
2023-04-08T22:05:16.128Z,26.25
2023-04-08T22:07:44.070Z,27.90
2023-04-08T22:10:12.797Z,26.10
2023-04-08T22:12:40.566Z,28.15
2023-04-08T22:15:09.748Z,27.85
2023-04-08T22:17:37.621Z,25.60
2023-04-08T22:20:07.928Z,27.73
2023-04-08T22:22:35.768Z,27.83
2023-04-08T22:25:03.692Z,27.10
2023-04-08T22:27:31.605Z,27.23
2023-04-08T22:29:59.594Z,27.00
2023-04-08T22:32:27.391Z,27.92
2023-04-08T22:34:55.716Z,27.10
2023-04-08T22:37:24.915Z,27.83
2023-04-08T22:39:53.537Z,27.38
2023-04-08T22:42:21.774Z,27.55
2023-04-08T22:44:49.755Z,28.33
2023-04-08T22:47:18.217Z,29.00
2023-04-08T22:49:46.083Z,28.75
2023-04-08T22:52:14.088Z,28.73
2023-04-08T22:54:43.305Z,28.33
2023-04-08T22:57:11.137Z,29.05
2023-04-08T22:59:39.150Z,29.48
2023-04-08T23:02:06.971Z,28.13
2023-04-08T23:04:35.012Z,28.02
2023-04-08T23:07:02.893Z,28.33
2023-04-08T23:09:31.005Z,29.65
2023-04-08T23:12:01.425Z,28.27
2023-04-08T23:14:29.513Z,27.40
2023-04-08T23:16:57.259Z,28.35
2023-04-08T23:19:25.188Z,27.85
2023-04-08T23:21:53.024Z,28.23
2023-04-08T23:24:21.130Z,27.83
2023-04-08T23:26:49.297Z,29.88
2023-04-08T23:29:19.107Z,28.08
2023-04-08T23:31:47.024Z,29.73
2023-04-08T23:34:14.835Z,29.00
2023-04-08T23:36:42.737Z,27.95
2023-04-08T23:39:10.483Z,28.17
2023-04-08T23:41:38.332Z,28.75
2023-04-08T23:44:06.493Z,29.13
2023-04-08T23:46:35.830Z,28.90
2023-04-08T23:49:03.683Z,27.15
2023-04-08T23:51:31.608Z,28.05
2023-04-08T23:53:59.414Z,27.85
2023-04-08T23:56:27.286Z,27.48
2023-04-08T23:58:55.180Z,28.17
